< Typhoon 196109 1961 Season Typhoon 196111 >
Typhoon 196110 (HELEN)
General InformationTrack Information on Google Maps || NewsDisaster Info.ResourceGoogle EarthGE AnimationAtom FeedGeoJSON
Detalied Best Track (Time Zone = UTC)
Year Month Day Hour Lat. Long. Pressure (hPa) Wind (kt) Class Image Chart
1961 7 22 18 12.0 146.2 1008 0 2 -- Chart
1961 7 23 00 12.2 145.8 1010 0 2 -- Chart
1961 7 23 06 12.3 145.0 1008 0 2 -- Chart
1961 7 23 12 12.5 144.0 1008 0 2 -- Chart
1961 7 23 18 13.0 143.0 1008 0 2 -- Chart
1961 7 24 00 13.8 142.0 1008 0 2 -- Chart
1961 7 24 06 14.2 140.8 1006 0 2 -- Chart
1961 7 24 12 14.8 139.2 1006 0 2 -- Chart
1961 7 24 18 15.2 138.0 1006 0 2 -- Chart
1961 7 25 00 15.8 136.8 1006 0 2 -- Chart
1961 7 25 06 16.0 135.0 1004 0 2 -- Chart
1961 7 25 12 16.3 133.5 1004 0 2 -- Chart
1961 7 25 18 17.0 132.0 1002 0 2 -- Chart
1961 7 26 00 17.3 130.5 1004 0 2 -- Chart
1961 7 26 06 18.0 129.0 1004 0 2 -- Chart
1961 7 26 12 18.5 128.5 1004 0 2 -- Chart
1961 7 26 18 20.0 129.0 1002 0 2 -- Chart
1961 7 27 00 20.5 130.8 1000 0 2 -- Chart
1961 7 27 06 20.9 131.4 990 0 2 -- Chart
1961 7 27 12 21.5 131.5 990 0 9 -- Chart
1961 7 27 18 22.0 131.5 990 0 9 -- Chart
1961 7 28 00 22.9 131.4 990 0 9 -- Chart
1961 7 28 06 23.3 131.3 985 0 9 -- Chart
1961 7 28 12 23.6 131.3 980 0 9 -- Chart
1961 7 28 18 23.8 131.8 975 0 9 -- Chart
1961 7 29 00 24.6 131.2 975 0 9 -- Chart
1961 7 29 06 25.2 131.2 970 0 9 -- Chart
1961 7 29 12 26.0 130.8 970 0 9 -- Chart
1961 7 29 18 26.8 130.5 975 0 9 -- Chart
1961 7 30 00 27.5 130.1 975 0 9 -- Chart
1961 7 30 06 28.0 129.5 975 0 9 -- Chart
1961 7 30 12 28.0 129.3 980 0 9 -- Chart
1961 7 30 18 28.2 129.0 985 0 9 -- Chart
1961 7 31 00 28.1 129.6 990 0 9 -- Chart
1961 7 31 06 28.1 130.4 992 0 9 -- Chart
1961 7 31 12 28.7 130.8 992 0 9 -- Chart
1961 7 31 18 29.1 130.5 990 0 9 -- Chart
1961 8 1 00 29.3 129.6 990 0 9 -- Chart
1961 8 1 06 29.7 128.9 990 0 9 -- Chart
1961 8 1 12 30.4 129.0 990 0 9 -- Chart
1961 8 1 18 31.0 129.2 987 0 9 -- Chart
1961 8 2 00 31.9 129.1 986 0 9 -- Chart
1961 8 2 06 33.1 128.6 986 0 9 -- Chart
1961 8 2 12 34.2 127.7 990 0 9 -- Chart
1961 8 2 18 34.9 127.4 990 0 9 -- Chart
1961 8 3 00 35.8 127.3 998 0 9 -- Chart
1961 8 3 06 37.0 127.2 998 0 2 -- Chart
1961 8 3 12 38.2 128.2 1000 0 6 -- Chart
1961 8 3 18 38.7 129.4 1000 0 6 -- Chart
1961 8 4 00 39.1 130.8 1000 0 6 -- Chart
1961 8 4 06 39.4 131.7 1000 0 6 -- Chart
1961 8 4 12 39.7 132.8 1000 0 6 -- Chart
1961 8 4 18 39.8 133.8 1000 0 6 -- Chart
1961 8 5 00 39.9 134.9 1000 0 6 -- Chart
1961 8 5 06 40.0 136.0 998 0 6 -- Chart
1961 8 5 12 40.0 137.1 998 0 6 -- Chart
1961 8 5 18 40.0 138.0 998 0 6 -- Chart
1961 8 6 00 39.6 138.8 998 0 6 -- Chart
1961 8 6 06 39.2 138.8 996 0 6 -- Chart
1961 8 6 12 38.8 138.6 994 0 6 -- Chart
1961 8 6 18 38.3 138.5 996 0 6 -- Chart
1961 8 7 00 38.0 138.8 998 0 6 -- Chart
Japan Meteorological Agency Best Track Data | Correction Date : 1989-06-01
< Typhoon 196109 1961 Season Typhoon 196111 >

Help